Time;durP1;ratioP1;P1;durP2;ratioP2;P2;SDS_P1;SDS_P2;PMS_P1;PMS_P2;Temp;Humidity;BMP_temperature;BMP_pressure;BME280_temperature;BME280_humidity;BME280_pressure;Samples;Min_cycle;Max_cycle;Signal;HPM_P1;HPM_P2
2021/12/16 00:04:09;;;;;;;21.17;12.70;;;;;;;3.54;100.00;96807.88;4993974;28;20556;-61
2021/12/16 00:09:25;;;;;;;22.40;12.13;;;;;;;3.54;100.00;96809.81;4993809;28;20188;-65
2021/12/16 00:33:39;;;;;;;18.63;11.20;;;;;;;3.42;100.00;96791.56;4993393;28;20215;-50
2021/12/16 00:36:07;;;;;;;19.87;12.60;;;;;;;3.38;100.00;96777.16;4975839;28;20230;-49
2021/12/16 00:38:35;;;;;;;20.43;12.40;;;;;;;3.37;100.00;96786.38;4976036;28;20180;-51
2021/12/16 00:41:01;;;;;;;22.07;12.73;;;;;;;3.36;100.00;96790.16;4975726;28;20192;-51
2021/12/16 00:54:07;;;;;;;22.50;14.03;;;;;;;3.48;100.00;96793.00;4992810;28;20237;-65
2021/12/16 00:56:33;;;;;;;21.97;13.87;;;;;;;3.43;100.00;96790.47;4975730;28;20187;-65
2021/12/16 00:59:01;;;;;;;19.77;12.87;;;;;;;3.44;100.00;96785.84;4975625;28;20231;-66
2021/12/16 01:34:57;;;;;;;21.13;11.63;;;;;;;3.46;100.00;96797.91;4993524;28;20254;-64
2021/12/16 01:38:06;;;;;;;19.00;12.07;;;;;;;3.42;100.00;96805.06;4978958;28;20199;-65
2021/12/16 01:40:24;;;;;;;20.80;12.07;;;;;;;3.41;100.00;96792.69;4995012;28;20217;-51
2021/12/16 01:46:07;;;;;;;21.67;12.70;;;;;;;3.42;100.00;96813.19;4996582;28;20223;-52
2021/12/16 01:51:15;;;;;;;18.00;10.80;;;;;;;3.46;100.00;96808.72;4995926;28;20191;-50
2021/12/16 01:56:50;;;;;;;19.30;11.57;;;;;;;3.46;100.00;96806.00;4996393;28;20283;-64
2021/12/16 01:59:18;;;;;;;22.53;13.63;;;;;;;3.44;100.00;96794.75;4995478;28;20198;-61
2021/12/16 02:01:44;;;;;;;22.17;13.00;;;;;;;3.41;100.00;96798.09;4978692;28;20192;-61
2021/12/16 02:04:18;;;;;;;22.03;12.43;;;;;;;3.41;100.00;96795.41;4978914;28;20186;-60
2021/12/16 02:07:03;;;;;;;22.70;13.07;;;;;;;3.47;100.00;96796.03;4979096;28;20187;-60
2021/12/16 02:09:40;;;;;;;21.10;12.40;;;;;;;3.49;100.00;96783.78;4978672;28;20210;-61
2021/12/16 02:12:23;;;;;;;21.50;12.10;;;;;;;3.53;100.00;96777.72;4978991;28;20199;-60
2021/12/16 02:29:00;;;;;;;17.13;10.80;;;;;;;3.41;100.00;96792.69;4996048;28;20194;-63
2021/12/16 02:36:28;;;;;;;18.07;10.80;;;;;;;3.45;100.00;96796.34;4995655;28;20255;-64
2021/12/16 02:39:06;;;;;;;17.70;10.70;;;;;;;3.43;100.00;96795.84;4978015;28;20194;-65
2021/12/16 02:41:31;;;;;;;14.30;9.47;;;;;;;3.37;100.00;96797.16;4978002;28;20188;-64
2021/12/16 02:49:45;;;;;;;19.10;11.20;;;;;;;3.40;100.00;96788.41;4995506;28;20207;-65
2021/12/16 02:52:11;;;;;;;19.40;11.40;;;;;;;3.43;100.00;96790.47;4977904;28;20215;-65
2021/12/16 02:54:37;;;;;;;19.67;11.17;;;;;;;3.38;100.00;96781.75;4977581;28;20195;-51
2021/12/16 02:57:03;;;;;;;20.40;12.10;;;;;;;3.40;100.00;96785.69;4977549;28;20187;-50
2021/12/16 02:59:30;;;;;;;17.87;11.37;;;;;;;3.39;100.00;96784.13;4977791;28;20238;-54
2021/12/16 03:02:01;;;;;;;19.63;11.67;;;;;;;3.40;100.00;96776.81;4977338;28;20191;-52
2021/12/16 03:04:29;;;;;;;16.40;10.37;;;;;;;3.44;100.00;96778.56;4977705;28;20279;-53
2021/12/16 03:06:57;;;;;;;17.87;10.87;;;;;;;3.46;100.00;96778.22;4977423;28;20191;-52
2021/12/16 03:09:47;;;;;;;19.03;11.27;;;;;;;3.46;100.00;96789.00;4977603;28;20215;-60
2021/12/16 03:12:45;;;;;;;19.33;11.63;;;;;;;3.41;100.00;96789.19;4994586;28;20199;-48
2021/12/16 03:15:35;;;;;;;18.43;11.17;;;;;;;3.36;100.00;96798.25;4977649;28;20250;-49
2021/12/16 03:23:37;;;;;;;19.37;11.60;;;;;;;3.32;100.00;96808.13;4994705;28;20187;-47
2021/12/16 03:28:54;;;;;;;20.43;11.83;;;;;;;3.36;100.00;96805.59;4994637;28;20184;-58
2021/12/16 03:34:26;;;;;;;21.53;13.40;;;;;;;3.40;100.00;96801.91;4994858;28;20286;-62
2021/12/16 03:39:45;;;;;;;22.87;13.43;;;;;;;3.39;100.00;96805.72;4994521;28;20206;-62
2021/12/16 03:42:15;;;;;;;25.63;14.00;;;;;;;3.39;100.00;96816.50;4976797;28;20207;-62
2021/12/16 03:44:56;;;;;;;24.93;14.20;;;;;;;3.43;100.00;96814.75;4976962;28;20199;-62
2021/12/16 03:47:44;;;;;;;22.40;12.80;;;;;;;3.44;100.00;96818.25;4976904;28;20294;-46
2021/12/16 03:50:17;;;;;;;19.87;11.57;;;;;;;3.38;100.00;96820.34;4976402;28;20219;-63
2021/12/16 03:52:44;;;;;;;19.77;11.97;;;;;;;3.40;100.00;96828.88;4976621;28;20215;-64
2021/12/16 03:55:11;;;;;;;22.27;12.70;;;;;;;3.40;100.00;96828.13;4977048;28;20191;-64
2021/12/16 03:57:38;;;;;;;20.77;12.43;;;;;;;3.36;100.00;96822.56;4976453;28;20274;-63
2021/12/16 04:00:11;;;;;;;25.87;14.63;;;;;;;3.37;100.00;96831.44;4975848;28;20203;-64
2021/12/16 04:02:37;;;;;;;23.53;13.97;;;;;;;3.35;100.00;96826.38;4976546;28;20199;-64
2021/12/16 04:05:05;;;;;;;19.90;11.93;;;;;;;3.37;100.00;96824.16;4976412;28;20204;-62
2021/12/16 04:07:34;;;;;;;21.70;12.50;;;;;;;3.36;100.00;96837.97;4976764;28;20285;-64
2021/12/16 04:09:59;;;;;;;20.70;13.50;;;;;;;3.38;100.00;96841.94;4976239;28;20223;-63
2021/12/16 04:12:27;;;;;;;21.90;13.27;;;;;;;3.31;100.00;96841.63;4976360;28;20188;-63
2021/12/16 04:14:58;;;;;;;24.70;13.60;;;;;;;3.35;100.00;96842.56;4977108;28;20423;-63
2021/12/16 04:17:27;;;;;;;25.37;14.97;;;;;;;3.36;100.00;96843.38;4976534;28;20180;-62
2021/12/16 04:19:53;;;;;;;23.87;13.93;;;;;;;3.41;100.00;96841.28;4976529;28;20641;-64
2021/12/16 04:22:32;;;;;;;20.73;12.33;;;;;;;3.41;100.00;96852.09;4976039;28;20180;-60
2021/12/16 04:25:04;;;;;;;21.93;13.10;;;;;;;3.34;100.00;96851.78;4976322;28;20195;-62
2021/12/16 04:27:31;;;;;;;24.47;14.40;;;;;;;3.35;100.00;96853.38;4976234;28;20544;-50
2021/12/16 04:29:57;;;;;;;24.20;14.20;;;;;;;3.33;100.00;96861.00;4976118;28;20265;-52
2021/12/16 04:32:23;;;;;;;25.17;14.53;;;;;;;3.34;100.00;96859.88;4975704;28;20188;-52
2021/12/16 04:34:48;;;;;;;20.80;12.50;;;;;;;3.29;100.00;96857.34;4975519;28;20268;-54
2021/12/16 04:37:15;;;;;;;19.63;11.93;;;;;;;3.19;100.00;96860.38;4993293;28;20242;-53
2021/12/16 04:39:43;;;;;;;16.73;9.63;;;;;;;3.20;100.00;96867.38;4976149;28;20298;-56
2021/12/16 04:42:15;;;;;;;17.60;11.20;;;;;;;3.14;100.00;96852.44;4976024;28;20254;-54
2021/12/16 04:44:42;;;;;;;17.30;10.87;;;;;;;3.09;100.00;96866.09;4976107;28;20282;-62
2021/12/16 04:47:09;;;;;;;21.13;11.77;;;;;;;3.10;100.00;96862.28;4975841;28;20250;-62
2021/12/16 04:49:35;;;;;;;17.67;10.93;;;;;;;3.13;100.00;96866.25;4975704;28;20212;-62
2021/12/16 04:52:05;;;;;;;18.00;10.47;;;;;;;3.06;100.00;96872.13;4975568;28;20208;-62
2021/12/16 04:54:31;;;;;;;19.40;11.90;;;;;;;3.08;100.00;96871.81;4975531;28;20227;-63
2021/12/16 04:56:57;;;;;;;17.57;11.63;;;;;;;3.11;100.00;96877.38;4975527;28;20211;-62
2021/12/16 04:59:24;;;;;;;20.33;11.97;;;;;;;3.16;100.00;96881.81;4975600;28;20198;-63
2021/12/16 05:01:53;;;;;;;21.00;12.47;;;;;;;3.19;100.00;96879.28;4975532;28;20199;-50
2021/12/16 05:04:19;;;;;;;21.13;12.50;;;;;;;3.20;100.00;96883.56;4975915;28;20649;-60
2021/12/16 05:06:44;;;;;;;17.20;10.57;;;;;;;3.19;100.00;96890.06;4975948;28;20341;-60
2021/12/16 05:09:15;;;;;;;16.00;10.33;;;;;;;3.17;100.00;96902.31;4975946;28;20218;-59
2021/12/16 05:11:40;;;;;;;18.03;10.43;;;;;;;3.13;100.00;96898.63;4979796;28;20187;-59
2021/12/16 05:14:06;;;;;;;17.33;10.53;;;;;;;3.06;100.00;96898.34;4979787;28;20203;-60
2021/12/16 05:16:33;;;;;;;15.53;10.20;;;;;;;3.04;100.00;96898.66;4979697;28;20196;-61
2021/12/16 05:18:59;;;;;;;16.67;10.10;;;;;;;3.04;100.00;96908.66;4979553;28;20184;-50
2021/12/16 05:24:25;;;;;;;15.70;9.97;;;;;;;3.05;100.00;96905.63;4997156;28;20195;-60
2021/12/16 05:26:55;;;;;;;15.70;9.87;;;;;;;3.09;100.00;96903.88;4979650;28;20282;-59
2021/12/16 05:29:21;;;;;;;17.13;9.50;;;;;;;3.03;100.00;96905.13;4979331;28;20605;-59
2021/12/16 05:31:46;;;;;;;14.70;9.27;;;;;;;3.05;100.00;96908.31;4979665;28;20187;-59
2021/12/16 05:34:12;;;;;;;14.73;9.27;;;;;;;3.08;100.00;96907.69;4978952;28;20192;-59
2021/12/16 05:36:39;;;;;;;16.90;9.83;;;;;;;3.07;100.00;96922.28;4979461;28;20195;-54
2021/12/16 05:39:05;;;;;;;15.43;9.77;;;;;;;3.04;100.00;96914.84;4979210;28;20188;-59
2021/12/16 05:41:31;;;;;;;15.33;9.40;;;;;;;3.05;100.00;96913.72;4979029;28;20188;-59
2021/12/16 05:43:57;;;;;;;15.87;8.90;;;;;;;2.99;100.00;96923.06;4979141;28;20255;-59
2021/12/16 05:46:23;;;;;;;15.67;9.23;;;;;;;3.02;100.00;96925.16;4979081;28;20242;-60
2021/12/16 05:48:51;;;;;;;15.87;9.57;;;;;;;3.10;100.00;96921.66;4978986;28;20188;-59
2021/12/16 05:51:22;;;;;;;16.70;10.17;;;;;;;3.14;100.00;96927.22;4978727;28;20212;-59
2021/12/16 05:53:49;;;;;;;15.17;9.27;;;;;;;3.17;100.00;96930.06;4979108;28;20184;-59
2021/12/16 05:56:15;;;;;;;16.37;9.67;;;;;;;3.13;100.00;96929.13;4979129;28;20188;-64
2021/12/16 05:58:41;;;;;;;13.17;8.07;;;;;;;3.11;100.00;96939.44;4979191;28;20194;-48
2021/12/16 06:01:14;;;;;;;12.47;8.03;;;;;;;3.14;100.00;96946.88;4978851;28;20187;-52
2021/12/16 06:03:41;;;;;;;10.63;7.07;;;;;;;3.15;100.00;96950.38;4978539;28;20180;-51
2021/12/16 06:06:08;;;;;;;11.77;7.70;;;;;;;3.13;100.00;96952.59;4978899;28;20195;-49
2021/12/16 06:08:34;;;;;;;11.23;6.70;;;;;;;3.13;100.00;96942.59;4978904;28;20299;-49
2021/12/16 06:13:35;;;;;;;13.10;7.70;;;;;;;3.08;100.00;96942.78;4995943;28;20188;-62
2021/12/16 06:29:16;;;;;;;12.90;8.00;;;;;;;3.08;100.00;96961.66;4995744;28;20196;-65
2021/12/16 06:31:41;;;;;;;13.97;7.73;;;;;;;3.09;100.00;96968.63;4978448;28;20195;-61
2021/12/16 06:34:06;;;;;;;11.87;6.73;;;;;;;3.01;100.00;96964.03;4978407;28;20194;-59
2021/12/16 06:36:32;;;;;;;11.50;7.07;;;;;;;3.00;100.00;96967.84;4978413;28;20198;-60
2021/12/16 06:38:57;;;;;;;12.17;7.50;;;;;;;3.04;100.00;96971.50;4978157;28;20197;-60
2021/12/16 06:41:23;;;;;;;10.77;7.23;;;;;;;3.09;100.00;96971.34;4978118;28;20250;-60
2021/12/16 06:43:52;;;;;;;13.43;7.20;;;;;;;2.99;100.00;96973.56;4977864;28;20287;-60
2021/12/16 06:46:20;;;;;;;10.93;7.00;;;;;;;3.02;100.00;96973.72;4978250;28;20188;-61
2021/12/16 06:48:54;;;;;;;16.30;9.73;;;;;;;3.03;100.00;96967.19;4994967;28;20267;-63
2021/12/16 06:51:32;;;;;;;16.67;8.97;;;;;;;3.04;100.00;96971.50;4977886;28;20218;-60
2021/12/16 06:54:05;;;;;;;13.10;7.90;;;;;;;3.07;100.00;96973.53;4978165;28;20195;-63
2021/12/16 06:56:52;;;;;;;15.63;8.47;;;;;;;3.08;100.00;96980.53;4977864;28;20199;-62
2021/12/16 06:59:34;;;;;;;13.30;8.07;;;;;;;2.98;100.00;96978.16;4977497;28;20207;-62
2021/12/16 07:02:10;;;;;;;14.77;8.17;;;;;;;3.03;100.00;96972.59;4977594;28;20278;-66
2021/12/16 07:04:37;;;;;;;13.37;8.60;;;;;;;3.06;100.00;96982.75;4977803;28;20194;-64
2021/12/16 07:07:05;;;;;;;14.60;8.23;;;;;;;3.02;100.00;96979.09;4994546;28;20188;-63
2021/12/16 07:09:31;;;;;;;12.33;7.37;;;;;;;3.10;100.00;96978.31;4994573;28;20651;-65
2021/12/16 07:11:58;;;;;;;14.33;7.80;;;;;;;3.12;100.00;96984.19;4977371;28;20261;-64
2021/12/16 07:14:35;;;;;;;12.87;7.27;;;;;;;3.05;100.00;96988.47;4977373;28;20188;-64
2021/12/16 07:17:08;;;;;;;13.00;7.50;;;;;;;3.09;100.00;96992.91;4977357;28;20270;-61
2021/12/16 07:19:34;;;;;;;13.60;7.80;;;;;;;3.12;100.00;96989.59;4977305;28;20188;-62
2021/12/16 07:21:59;;;;;;;11.70;6.93;;;;;;;3.15;100.00;96993.56;4977309;28;20246;-62
2021/12/16 07:24:25;;;;;;;10.60;6.67;;;;;;;3.13;100.00;96988.47;4977505;28;20202;-61
2021/12/16 07:26:50;;;;;;;13.17;7.13;;;;;;;3.15;100.00;96982.78;4977389;28;20226;-52
2021/12/16 07:29:16;;;;;;;11.20;6.60;;;;;;;3.13;100.00;96985.78;4976727;28;20212;-62
2021/12/16 07:31:41;;;;;;;12.13;7.33;;;;;;;3.18;100.00;96985.63;4976963;28;20192;-61
2021/12/16 07:34:08;;;;;;;13.30;7.37;;;;;;;3.20;100.00;96991.50;4976778;28;20278;-61
2021/12/16 07:36:37;;;;;;;14.90;8.03;;;;;;;3.21;100.00;96997.72;4976829;28;20184;-62
2021/12/16 07:39:06;;;;;;;14.93;8.10;;;;;;;3.26;100.00;97000.25;4976699;28;20191;-61
2021/12/16 07:41:33;;;;;;;15.33;8.83;;;;;;;3.35;100.00;96998.31;4976998;28;20188;-60
2021/12/16 07:44:10;;;;;;;14.27;8.20;;;;;;;3.42;100.00;97004.84;4977080;28;20184;-61
2021/12/16 07:46:53;;;;;;;14.30;8.90;;;;;;;3.44;100.00;97002.63;4976881;28;20349;-60
2021/12/16 07:49:27;;;;;;;16.03;8.63;;;;;;;3.45;100.00;96993.41;4976833;28;20211;-52
2021/12/16 07:51:53;;;;;;;15.63;9.03;;;;;;;3.48;100.00;96992.78;4976687;28;20212;-49
2021/12/16 07:54:19;;;;;;;13.47;7.90;;;;;;;3.57;100.00;96991.97;4976570;28;20188;-49
2021/12/16 07:56:47;;;;;;;14.10;8.80;;;;;;;3.62;100.00;96994.50;4976534;28;20250;-52
2021/12/16 07:59:12;;;;;;;15.97;8.80;;;;;;;3.68;100.00;97004.06;4976637;28;20204;-53
2021/12/16 08:01:40;;;;;;;15.60;9.17;;;;;;;3.71;100.00;97000.72;4976172;28;20195;-52
2021/12/16 08:04:06;;;;;;;13.33;8.40;;;;;;;3.74;100.00;97005.47;4976463;28;20257;-64
2021/12/16 08:06:33;;;;;;;11.60;7.47;;;;;;;3.78;100.00;97009.13;4976331;28;20523;-48
2021/12/16 08:09:08;;;;;;;13.90;8.47;;;;;;;3.82;100.00;97012.78;4976654;28;20194;-46
2021/12/16 08:11:36;;;;;;;11.63;7.20;;;;;;;3.85;100.00;97012.16;4976792;28;20203;-46
2021/12/16 08:14:03;;;;;;;13.20;8.33;;;;;;;3.84;100.00;97027.56;4976216;28;20180;-49
2021/12/16 08:16:29;;;;;;;11.70;7.10;;;;;;;3.93;100.00;97019.44;4976441;28;20176;-46
2021/12/16 08:18:55;;;;;;;11.47;6.73;;;;;;;4.03;100.00;97024.47;4976218;28;20179;-46
2021/12/16 08:21:23;;;;;;;10.13;6.50;;;;;;;4.09;100.00;97023.22;4976159;28;20183;-46
2021/12/16 08:23:50;;;;;;;10.77;7.00;;;;;;;4.22;100.00;97027.66;4976448;28;20184;-54
2021/12/16 08:26:16;;;;;;;12.33;6.97;;;;;;;4.30;100.00;97030.31;4975881;28;20180;-58
2021/12/16 08:28:44;;;;;;;15.73;10.73;;;;;;;4.41;100.00;97030.75;4976098;28;20183;-56
2021/12/16 08:31:10;;;;;;;10.43;6.73;;;;;;;4.36;100.00;97031.72;4975676;28;20208;-55
2021/12/16 08:33:37;;;;;;;11.80;6.70;;;;;;;4.46;100.00;97038.69;4976312;28;20275;-58
2021/12/16 08:36:05;;;;;;;8.57;5.10;;;;;;;4.55;100.00;97036.78;4976304;28;20199;-54
2021/12/16 08:38:31;;;;;;;7.80;5.20;;;;;;;4.56;100.00;97032.94;4975948;28;20258;-57
2021/12/16 08:41:01;;;;;;;8.47;5.87;;;;;;;4.61;100.00;97035.44;4976070;28;20279;-51
2021/12/16 08:43:27;;;;;;;10.27;6.90;;;;;;;4.77;100.00;97025.69;4976313;28;20185;-58
2021/12/16 08:45:52;;;;;;;10.17;6.53;;;;;;;4.97;100.00;97033.06;4975440;28;20254;-58
2021/12/16 08:48:18;;;;;;;10.30;6.53;;;;;;;5.07;100.00;97038.09;4975692;28;20202;-58
2021/12/16 08:50:47;;;;;;;8.37;5.97;;;;;;;4.82;100.00;97037.13;4975638;28;20214;-55
2021/12/16 08:53:15;;;;;;;10.50;6.77;;;;;;;4.78;100.00;97046.22;4975827;28;20262;-57
2021/12/16 08:55:43;;;;;;;10.23;6.77;;;;;;;4.84;100.00;97050.34;4976142;28;20211;-56
2021/12/16 08:58:09;;;;;;;10.87;6.67;;;;;;;4.83;100.00;97054.94;4975847;28;20188;-56
2021/12/16 09:00:39;;;;;;;11.87;6.47;;;;;;;4.81;100.00;97051.75;4975702;28;20177;-62
2021/12/16 09:03:05;;;;;;;9.73;6.37;;;;;;;4.64;100.00;97062.66;4975874;28;20195;-61
2021/12/16 09:05:32;;;;;;;10.93;6.00;;;;;;;4.59;100.00;97059.34;4975917;28;20184;-61
2021/12/16 09:07:57;;;;;;;9.47;5.87;;;;;;;4.63;100.00;97068.41;4976392;28;20206;-61
2021/12/16 09:10:28;;;;;;;9.80;6.50;;;;;;;4.68;100.00;97062.78;4975444;28;20290;-60
2021/12/16 09:13:03;;;;;;;10.77;6.53;;;;;;;4.63;100.00;97065.69;4976195;28;20187;-62
2021/12/16 09:15:44;;;;;;;9.67;6.53;;;;;;;4.68;100.00;97060.09;4977233;28;20183;-60
2021/12/16 09:18:11;;;;;;;10.07;6.30;;;;;;;4.71;100.00;97067.56;4977332;28;20188;-55
2021/12/16 09:20:38;;;;;;;9.37;6.10;;;;;;;4.66;100.00;97070.47;4977241;28;20199;-59
2021/12/16 09:23:05;;;;;;;9.60;6.47;;;;;;;4.73;100.00;97071.53;4977103;28;20228;-59
2021/12/16 09:25:30;;;;;;;8.37;5.70;;;;;;;4.82;100.00;97076.91;4977025;28;20188;-58
2021/12/16 09:27:56;;;;;;;7.87;5.00;;;;;;;4.83;100.00;97068.47;4976980;28;20195;-59
2021/12/16 09:30:24;;;;;;;8.27;5.83;;;;;;;4.84;100.00;97071.97;4977415;28;20254;-58
2021/12/16 09:32:51;;;;;;;10.17;5.63;;;;;;;4.98;100.00;97083.34;4977214;28;20192;-59
2021/12/16 09:35:19;;;;;;;7.33;5.00;;;;;;;4.99;100.00;97090.38;4976898;28;20183;-48
2021/12/16 09:37:45;;;;;;;10.83;6.47;;;;;;;5.00;100.00;97086.53;4976720;28;20181;-61
2021/12/16 09:40:16;;;;;;;9.80;7.27;;;;;;;4.98;100.00;97095.00;4976758;28;20283;-51
2021/12/16 09:42:42;;;;;;;11.77;7.87;;;;;;;5.07;100.00;97092.25;4976731;28;20223;-53
2021/12/16 09:45:09;;;;;;;6.83;5.10;;;;;;;5.16;100.00;97088.38;4976705;28;20223;-49
2021/12/16 09:47:37;;;;;;;8.20;5.53;;;;;;;5.19;100.00;97089.63;4976618;28;20188;-50
2021/12/16 09:50:05;;;;;;;7.20;5.13;;;;;;;5.29;100.00;97090.06;4977327;28;20203;-51
2021/12/16 09:52:30;;;;;;;15.10;10.23;;;;;;;5.39;100.00;97083.47;4976284;28;20303;-50
2021/12/16 09:54:56;;;;;;;7.63;5.13;;;;;;;5.46;100.00;97086.47;4976755;28;20291;-61
2021/12/16 09:57:22;;;;;;;7.40;4.73;;;;;;;5.46;100.00;97089.94;4979938;28;20204;-61
2021/12/16 09:59:47;;;;;;;11.03;6.80;;;;;;;5.56;100.00;97088.78;4980388;28;20633;-60
2021/12/16 10:02:16;;;;;;;8.43;6.20;;;;;;;5.77;100.00;97089.56;4980554;28;20192;-62
2021/12/16 10:04:42;;;;;;;8.23;6.10;;;;;;;5.94;100.00;97090.25;4980293;28;20188;-60
2021/12/16 10:07:21;;;;;;;7.20;4.77;;;;;;;5.89;100.00;97097.81;4980576;28;20227;-60
2021/12/16 10:09:49;;;;;;;5.90;4.50;;;;;;;5.86;100.00;97101.16;4980670;28;20211;-60
2021/12/16 10:12:18;;;;;;;6.37;4.57;;;;;;;5.88;100.00;97098.94;4980443;28;20184;-62
2021/12/16 10:17:24;;;;;;;6.97;5.30;;;;;;;5.98;100.00;97095.84;4980612;28;20235;-63
2021/12/16 10:17:41;;;;;;;5.60;4.37;;;;;;;5.91;100.00;97101.00;4996568;28;20199;-56
2021/12/16 10:20:16;;;;;;;6.10;4.70;;;;;;;5.93;100.00;97090.59;4979894;28;20544;-55
2021/12/16 10:22:43;;;;;;;7.30;4.47;;;;;;;5.90;100.00;97094.75;4980446;28;20213;-55
2021/12/16 10:25:28;;;;;;;5.63;4.20;;;;;;;5.92;100.00;97083.59;4979696;28;20223;-54
2021/12/16 10:27:59;;;;;;;5.90;4.00;;;;;;;5.98;100.00;97087.69;4979946;28;20710;-57
2021/12/16 10:30:34;;;;;;;5.83;4.50;;;;;;;6.03;100.00;97091.00;4979616;28;20221;-46
2021/12/16 10:33:13;;;;;;;5.47;4.03;;;;;;;6.17;100.00;97082.59;4980328;28;20283;-60
2021/12/16 10:35:39;;;;;;;14.70;11.47;;;;;;;6.39;100.00;97074.88;4996998;28;20211;-60
2021/12/16 10:38:07;;;;;;;11.47;8.87;;;;;;;6.44;100.00;97077.34;4996906;28;20185;-61
2021/12/16 10:40:43;;;;;;;6.43;4.40;;;;;;;6.64;100.00;97078.44;4979801;28;20198;-60
2021/12/16 10:43:23;;;;;;;5.53;3.87;;;;;;;6.79;100.00;97072.34;4979641;28;20193;-59
2021/12/16 10:45:57;;;;;;;4.80;3.70;;;;;;;6.90;100.00;97073.50;4996780;28;20201;-59
2021/12/16 10:48:38;;;;;;;4.80;3.60;;;;;;;6.92;100.00;97073.94;4979385;28;20193;-59
2021/12/16 10:51:05;;;;;;;6.07;3.77;;;;;;;7.06;100.00;97079.06;4979532;28;20220;-61
2021/12/16 10:54:00;;;;;;;4.00;3.60;;;;;;;7.26;100.00;97078.94;4979185;28;20200;-57
2021/12/16 10:56:28;;;;;;;4.30;3.60;;;;;;;7.29;100.00;97063.88;4979457;28;20226;-59
2021/12/16 10:59:02;;;;;;;4.70;3.93;;;;;;;7.23;100.00;97066.03;4979587;28;20186;-57
2021/12/16 11:01:36;;;;;;;4.43;3.77;;;;;;;7.37;100.00;97071.91;4979230;28;20292;-56
2021/12/16 11:04:08;;;;;;;3.77;3.30;;;;;;;7.57;100.00;97070.19;4979428;28;20249;-56
2021/12/16 11:06:38;;;;;;;4.97;3.60;;;;;;;7.66;100.00;97068.94;4979156;28;20180;-57
2021/12/16 11:09:40;;;;;;;6.27;4.40;;;;;;;7.75;100.00;97076.97;4978495;28;20194;-49
2021/12/16 11:12:13;;;;;;;4.80;3.63;;;;;;;7.78;100.00;97082.50;4995784;28;20274;-49
2021/12/16 11:14:40;;;;;;;5.40;3.43;;;;;;;7.85;100.00;97082.72;4978725;28;20199;-48
2021/12/16 11:17:10;;;;;;;4.13;2.87;;;;;;;7.65;100.00;97070.06;4978936;28;20183;-50
2021/12/16 11:19:53;;;;;;;4.00;3.00;;;;;;;7.68;100.00;97069.38;4978607;28;20191;-52
2021/12/16 11:22:33;;;;;;;3.80;3.30;;;;;;;7.56;100.00;97074.84;4979182;28;20172;-51
2021/12/16 11:25:14;;;;;;;5.17;3.33;;;;;;;7.55;100.00;97067.81;4978701;28;20294;-47
2021/12/16 11:27:42;;;;;;;3.47;3.10;;;;;;;7.52;100.00;97073.94;4978879;28;20184;-50
2021/12/16 11:30:27;;;;;;;4.07;3.50;;;;;;;7.40;100.00;97067.72;4978156;28;20216;-45
2021/12/16 11:32:54;;;;;;;4.53;3.50;;;;;;;7.49;100.00;97080.06;4978302;28;20206;-50
2021/12/16 11:35:29;;;;;;;5.43;4.17;;;;;;;7.33;100.00;97076.44;4978474;28;20191;-47
2021/12/16 11:37:55;;;;;;;6.67;5.20;;;;;;;7.23;100.00;97071.47;4978258;28;20195;-48
2021/12/16 11:40:21;;;;;;;6.27;4.47;;;;;;;7.23;100.00;97084.25;4978261;28;20244;-50
2021/12/16 11:43:05;;;;;;;4.53;3.80;;;;;;;7.23;100.00;97076.91;4978088;28;20187;-47
2021/12/16 11:45:39;;;;;;;4.43;3.07;;;;;;;7.16;100.00;97071.25;4977962;28;20249;-65
2021/12/16 11:48:07;;;;;;;3.40;3.00;;;;;;;7.01;100.00;97068.41;4977897;28;20198;-66
2021/12/16 11:50:36;;;;;;;3.43;3.00;;;;;;;6.88;100.00;97081.97;4977662;28;20223;-66
2021/12/16 11:53:02;;;;;;;4.43;3.30;;;;;;;6.66;100.00;97073.44;4995128;28;20209;-66
2021/12/16 11:55:28;;;;;;;5.33;3.63;;;;;;;6.78;100.00;97070.78;4978141;28;20252;-66
2021/12/16 11:58:00;;;;;;;4.93;3.57;;;;;;;6.83;100.00;97079.50;4978082;28;20230;-66
2021/12/16 12:00:34;;;;;;;5.67;3.57;;;;;;;6.81;100.00;97079.03;4978019;28;20199;-66
2021/12/16 12:03:07;;;;;;;5.73;5.13;;;;;;;6.83;100.00;97089.53;4978271;28;20192;-61
2021/12/16 12:05:44;;;;;;;4.53;3.60;;;;;;;6.78;100.00;97081.63;4977608;28;20197;-64
2021/12/16 12:08:23;;;;;;;4.97;3.27;;;;;;;6.80;100.00;97080.16;4977629;28;20280;-61
2021/12/16 12:11:06;;;;;;;3.60;3.10;;;;;;;6.86;100.00;97083.44;4978091;28;20260;-60
2021/12/16 12:13:44;;;;;;;6.23;3.30;;;;;;;6.77;100.00;97080.81;4977937;28;20209;-60
2021/12/16 12:16:14;;;;;;;5.10;3.10;;;;;;;6.78;100.00;97084.34;4977768;28;20215;-60
2021/12/16 12:18:44;;;;;;;6.20;3.37;;;;;;;6.59;100.00;97084.06;4977002;28;20242;-61
2021/12/16 12:21:33;;;;;;;4.37;3.17;;;;;;;6.66;100.00;97084.31;4978023;28;20189;-61
2021/12/16 12:24:16;;;;;;;4.57;2.90;;;;;;;6.68;100.00;97082.88;4977519;28;20194;-59
2021/12/16 12:26:50;;;;;;;6.30;3.30;;;;;;;6.75;100.00;97082.28;4977476;28;20670;-59
2021/12/16 12:29:28;;;;;;;4.97;2.57;;;;;;;6.81;100.00;97086.38;4977430;28;20279;-59
2021/12/16 12:31:58;;;;;;;3.50;2.97;;;;;;;6.65;100.00;97080.81;4977887;28;20191;-59
2021/12/16 12:34:24;;;;;;;3.60;2.70;;;;;;;6.52;100.00;97083.84;4977757;28;20185;-59
2021/12/16 12:36:53;;;;;;;3.67;2.80;;;;;;;6.40;100.00;97086.50;4977167;28;20217;-58
2021/12/16 12:39:23;;;;;;;4.27;3.40;;;;;;;6.40;100.00;97084.59;4977355;28;20198;-60
2021/12/16 12:41:50;;;;;;;4.70;2.83;;;;;;;6.36;100.00;97088.28;4977289;28;20197;-47
2021/12/16 12:44:15;;;;;;;5.90;4.53;;;;;;;6.37;100.00;97079.81;4977293;28;20197;-65
2021/12/16 12:46:42;;;;;;;4.93;4.03;;;;;;;6.52;100.00;97073.75;4977694;28;20240;-66
2021/12/16 12:49:12;;;;;;;5.37;4.43;;;;;;;6.59;100.00;97074.00;4977060;28;20181;-66
2021/12/16 12:51:44;;;;;;;4.07;3.20;;;;;;;6.67;100.00;97075.06;4977509;28;20280;-65
2021/12/16 12:54:26;;;;;;;3.23;2.73;;;;;;;6.57;100.00;97075.47;4977407;28;20189;-65
2021/12/16 12:56:54;;;;;;;2.77;2.53;;;;;;;6.31;100.00;97073.00;4953818;28;20691;-65
2021/12/16 12:59:31;;;;;;;3.07;2.57;;;;;;;6.30;100.00;97070.63;4954144;28;20206;-58
2021/12/16 13:01:56;;;;;;;4.67;2.77;;;;;;;6.38;100.00;97067.06;4953940;29;20207;-56
2021/12/16 13:04:26;;;;;;;6.30;2.80;;;;;;;6.54;100.00;97059.84;4937966;29;20206;-57
2021/12/16 13:06:56;;;;;;;3.90;2.70;;;;;;;6.56;100.00;97071.19;4953741;29;20214;-54
2021/12/16 13:09:29;;;;;;;3.90;2.60;;;;;;;6.47;100.00;97060.41;4953377;29;20198;-55
2021/12/16 13:11:55;;;;;;;4.77;2.77;;;;;;;6.56;100.00;97079.31;4937991;29;20207;-57
2021/12/16 13:17:30;;;;;;;2.60;2.40;;;;;;;6.54;100.00;97065.28;4953939;29;20224;-58
2021/12/16 13:28:00;;;;;;;2.63;2.40;;;;;;;6.48;100.00;97050.34;4973989;28;20200;-58
2021/12/16 13:30:32;;;;;;;4.53;2.30;;;;;;;6.55;100.00;97053.28;4977091;28;20279;-58
2021/12/16 13:33:14;;;;;;;3.77;2.70;;;;;;;6.57;100.00;97051.06;4980667;28;20595;-60
2021/12/16 13:35:48;;;;;;;14.80;9.67;;;;;;;6.58;100.00;97056.16;4981128;28;20185;-48
2021/12/16 13:38:15;;;;;;;4.60;3.00;;;;;;;6.56;100.00;97052.97;4980956;28;20193;-63
2021/12/16 13:40:43;;;;;;;4.00;2.10;;;;;;;6.45;100.00;97051.03;4980771;28;20189;-62
2021/12/16 13:43:30;;;;;;;6.27;3.80;;;;;;;6.45;100.00;97051.03;4980813;28;20190;-65
2021/12/16 13:48:53;;;;;;;6.27;3.43;;;;;;;6.48;100.00;97053.06;4997524;28;20187;-63
2021/12/16 14:04:35;;;;;;;4.27;2.57;;;;;;;6.41;100.00;97067.16;4956903;29;20218;-58
2021/12/16 14:07:01;;;;;;;3.60;2.70;;;;;;;6.41;100.00;97071.81;4996884;28;20190;-57
2021/12/16 14:09:32;;;;;;;4.90;2.90;;;;;;;6.44;100.00;97071.13;4980158;28;20219;-59
2021/12/16 14:18:08;;;;;;;4.07;2.47;;;;;;;6.18;100.00;97057.03;4996983;28;20181;-65
2021/12/16 14:34:54;;;;;;;4.07;2.60;;;;;;;6.04;100.00;97059.25;4997160;28;20206;-64
2021/12/16 14:37:23;;;;;;;4.90;2.67;;;;;;;6.00;100.00;97058.31;4996407;28;20204;-66
2021/12/16 14:47:56;;;;;;;3.30;2.60;;;;;;;5.77;100.00;97084.16;4996747;28;20202;-63
2021/12/16 14:50:24;;;;;;;3.27;2.60;;;;;;;5.73;100.00;97104.91;4978846;28;20266;-60
2021/12/16 14:52:50;;;;;;;6.87;3.13;;;;;;;5.72;100.00;97095.22;4979157;28;20315;-62
2021/12/16 14:55:18;;;;;;;5.40;2.70;;;;;;;5.74;100.00;97101.88;4979502;28;20231;-61